sensor_id;sensor_type;location;lat;lon;timestamp;P1;durP1;ratioP1;P2;durP2;ratioP2
22070;SDS011;11200;51.488;6.668;2023-03-01T04:46:41;7.47;;;5.97;;
22070;SDS011;11200;51.488;6.668;2023-03-01T04:49:07;8.30;;;5.78;;
22070;SDS011;11200;51.488;6.668;2023-03-01T04:51:33;7.38;;;6.00;;
22070;SDS011;11200;51.488;6.668;2023-03-01T04:53:58;7.50;;;6.15;;
22070;SDS011;11200;51.488;6.668;2023-03-01T04:56:25;7.43;;;5.90;;
22070;SDS011;11200;51.488;6.668;2023-03-01T04:58:52;7.18;;;5.88;;
22070;SDS011;11200;51.488;6.668;2023-03-01T05:01:19;6.70;;;5.75;;
22070;SDS011;11200;51.488;6.668;2023-03-01T05:03:49;7.57;;;5.70;;
22070;SDS011;11200;51.488;6.668;2023-03-01T05:06:16;8.57;;;6.10;;
22070;SDS011;11200;51.488;6.668;2023-03-01T05:08:45;8.63;;;5.90;;
22070;SDS011;11200;51.488;6.668;2023-03-01T05:11:11;7.43;;;5.88;;
22070;SDS011;11200;51.488;6.668;2023-03-01T05:13:38;8.55;;;5.65;;
22070;SDS011;11200;51.488;6.668;2023-03-01T05:16:06;7.25;;;5.78;;
22070;SDS011;11200;51.488;6.668;2023-03-01T05:18:35;7.45;;;6.00;;
22070;SDS011;11200;51.488;6.668;2023-03-01T05:21:07;8.43;;;6.18;;
22070;SDS011;11200;51.488;6.668;2023-03-01T05:23:38;6.82;;;5.32;;
22070;SDS011;11200;51.488;6.668;2023-03-01T05:26:08;6.78;;;5.68;;
22070;SDS011;11200;51.488;6.668;2023-03-01T05:28:34;8.02;;;6.00;;
22070;SDS011;11200;51.488;6.668;2023-03-01T05:31:00;6.72;;;6.03;;
22070;SDS011;11200;51.488;6.668;2023-03-01T05:33:26;6.90;;;5.90;;
22070;SDS011;11200;51.488;6.668;2023-03-01T05:35:53;7.03;;;5.90;;
22070;SDS011;11200;51.488;6.668;2023-03-01T05:38:24;7.97;;;5.63;;
22070;SDS011;11200;51.488;6.668;2023-03-01T05:40:50;8.20;;;6.15;;
22070;SDS011;11200;51.488;6.668;2023-03-01T05:43:16;7.55;;;6.07;;
22070;SDS011;11200;51.488;6.668;2023-03-01T05:45:43;7.57;;;5.95;;
22070;SDS011;11200;51.488;6.668;2023-03-01T05:48:09;7.45;;;5.80;;
22070;SDS011;11200;51.488;6.668;2023-03-01T05:50:37;8.10;;;5.97;;
22070;SDS011;11200;51.488;6.668;2023-03-01T05:55:40;7.28;;;5.78;;
22070;SDS011;11200;51.488;6.668;2023-03-01T05:58:07;7.15;;;5.93;;
22070;SDS011;11200;51.488;6.668;2023-03-01T06:00:39;8.15;;;6.13;;
22070;SDS011;11200;51.488;6.668;2023-03-01T06:03:04;8.45;;;6.43;;
22070;SDS011;11200;51.488;6.668;2023-03-01T06:05:30;6.60;;;5.55;;
22070;SDS011;11200;51.488;6.668;2023-03-01T06:07:58;7.63;;;5.78;;
22070;SDS011;11200;51.488;6.668;2023-03-01T06:10:24;8.88;;;6.05;;
22070;SDS011;11200;51.488;6.668;2023-03-01T06:12:50;8.07;;;6.53;;
22070;SDS011;11200;51.488;6.668;2023-03-01T06:15:16;7.32;;;6.03;;
22070;SDS011;11200;51.488;6.668;2023-03-01T06:17:42;7.32;;;6.00;;
22070;SDS011;11200;51.488;6.668;2023-03-01T06:20:11;7.60;;;5.78;;
22070;SDS011;11200;51.488;6.668;2023-03-01T06:22:40;7.70;;;5.63;;
22070;SDS011;11200;51.488;6.668;2023-03-01T06:25:07;8.48;;;5.85;;
22070;SDS011;11200;51.488;6.668;2023-03-01T06:27:33;7.60;;;5.93;;
22070;SDS011;11200;51.488;6.668;2023-03-01T06:29:59;7.57;;;5.93;;
22070;SDS011;11200;51.488;6.668;2023-03-01T06:32:24;8.77;;;6.00;;
22070;SDS011;11200;51.488;6.668;2023-03-01T06:34:50;9.13;;;6.28;;
22070;SDS011;11200;51.488;6.668;2023-03-01T06:37:16;8.23;;;6.22;;
22070;SDS011;11200;51.488;6.668;2023-03-01T06:39:41;7.53;;;6.05;;
22070;SDS011;11200;51.488;6.668;2023-03-01T06:42:07;7.60;;;5.95;;
22070;SDS011;11200;51.488;6.668;2023-03-01T06:44:35;8.20;;;6.03;;
22070;SDS011;11200;51.488;6.668;2023-03-01T06:47:01;7.00;;;5.60;;
22070;SDS011;11200;51.488;6.668;2023-03-01T06:49:28;9.10;;;6.32;;
22070;SDS011;11200;51.488;6.668;2023-03-01T06:51:54;7.35;;;5.60;;
22070;SDS011;11200;51.488;6.668;2023-03-01T06:54:20;6.97;;;5.78;;
22070;SDS011;11200;51.488;6.668;2023-03-01T06:56:47;8.15;;;6.18;;
22070;SDS011;11200;51.488;6.668;2023-03-01T06:59:13;8.73;;;6.40;;
22070;SDS011;11200;51.488;6.668;2023-03-01T07:01:39;8.98;;;6.20;;
22070;SDS011;11200;51.488;6.668;2023-03-01T07:04:04;8.15;;;6.10;;
22070;SDS011;11200;51.488;6.668;2023-03-01T07:06:30;8.07;;;6.22;;
22070;SDS011;11200;51.488;6.668;2023-03-01T07:08:55;8.82;;;6.40;;
22070;SDS011;11200;51.488;6.668;2023-03-01T07:11:21;8.52;;;6.72;;
22070;SDS011;11200;51.488;6.668;2023-03-01T07:13:47;9.20;;;6.70;;
22070;SDS011;11200;51.488;6.668;2023-03-01T07:16:13;7.68;;;6.10;;
22070;SDS011;11200;51.488;6.668;2023-03-01T07:18:39;7.75;;;6.07;;
22070;SDS011;11200;51.488;6.668;2023-03-01T07:21:06;10.20;;;6.38;;
22070;SDS011;11200;51.488;6.668;2023-03-01T07:23:36;10.52;;;6.97;;
22070;SDS011;11200;51.488;6.668;2023-03-01T07:26:02;9.73;;;6.97;;
22070;SDS011;11200;51.488;6.668;2023-03-01T07:28:28;8.93;;;6.85;;
22070;SDS011;11200;51.488;6.668;2023-03-01T07:30:54;9.98;;;6.63;;
22070;SDS011;11200;51.488;6.668;2023-03-01T07:33:20;7.72;;;6.70;;
22070;SDS011;11200;51.488;6.668;2023-03-01T07:35:46;10.10;;;7.15;;
22070;SDS011;11200;51.488;6.668;2023-03-01T07:38:11;11.13;;;7.15;;
22070;SDS011;11200;51.488;6.668;2023-03-01T07:40:37;8.82;;;7.07;;
22070;SDS011;11200;51.488;6.668;2023-03-01T07:43:03;9.10;;;6.97;;
22070;SDS011;11200;51.488;6.668;2023-03-01T07:45:28;10.88;;;8.00;;
22070;SDS011;11200;51.488;6.668;2023-03-01T07:47:54;11.35;;;7.78;;
22070;SDS011;11200;51.488;6.668;2023-03-01T07:50:21;10.55;;;7.57;;
22070;SDS011;11200;51.488;6.668;2023-03-01T07:52:47;11.05;;;7.78;;
22070;SDS011;11200;51.488;6.668;2023-03-01T07:55:14;12.95;;;7.90;;
22070;SDS011;11200;51.488;6.668;2023-03-01T07:57:41;9.70;;;7.80;;
22070;SDS011;11200;51.488;6.668;2023-03-01T08:00:07;12.00;;;8.00;;
22070;SDS011;11200;51.488;6.668;2023-03-01T08:02:35;11.93;;;8.10;;
22070;SDS011;11200;51.488;6.668;2023-03-01T08:05:01;11.63;;;7.90;;
22070;SDS011;11200;51.488;6.668;2023-03-01T08:07:26;10.93;;;8.02;;
22070;SDS011;11200;51.488;6.668;2023-03-01T08:09:52;13.43;;;8.20;;
22070;SDS011;11200;51.488;6.668;2023-03-01T08:12:17;10.50;;;7.85;;
22070;SDS011;11200;51.488;6.668;2023-03-01T08:14:43;11.27;;;7.95;;
22070;SDS011;11200;51.488;6.668;2023-03-01T08:17:09;11.23;;;8.10;;
22070;SDS011;11200;51.488;6.668;2023-03-01T08:19:34;9.77;;;7.93;;
22070;SDS011;11200;51.488;6.668;2023-03-01T08:22:03;12.00;;;8.20;;
22070;SDS011;11200;51.488;6.668;2023-03-01T08:24:29;12.82;;;8.45;;
22070;SDS011;11200;51.488;6.668;2023-03-01T08:26:54;11.45;;;8.20;;
22070;SDS011;11200;51.488;6.668;2023-03-01T08:29:20;10.98;;;8.23;;
22070;SDS011;11200;51.488;6.668;2023-03-01T08:31:46;11.25;;;8.15;;
22070;SDS011;11200;51.488;6.668;2023-03-01T08:34:14;13.52;;;9.00;;
22070;SDS011;11200;51.488;6.668;2023-03-01T08:36:41;14.93;;;9.23;;
22070;SDS011;11200;51.488;6.668;2023-03-01T08:39:10;11.13;;;8.50;;
22070;SDS011;11200;51.488;6.668;2023-03-01T08:41:37;13.75;;;9.13;;
22070;SDS011;11200;51.488;6.668;2023-03-01T08:44:03;11.15;;;8.73;;
22070;SDS011;11200;51.488;6.668;2023-03-01T08:46:30;14.48;;;9.63;;
22070;SDS011;11200;51.488;6.668;2023-03-01T08:49:03;11.68;;;8.88;;
22070;SDS011;11200;51.488;6.668;2023-03-01T08:51:35;11.70;;;9.00;;
22070;SDS011;11200;51.488;6.668;2023-03-01T08:54:05;14.10;;;9.80;;
22070;SDS011;11200;51.488;6.668;2023-03-01T08:56:34;11.45;;;9.25;;
22070;SDS011;11200;51.488;6.668;2023-03-01T08:59:00;14.20;;;9.20;;
22070;SDS011;11200;51.488;6.668;2023-03-01T09:01:26;13.23;;;9.38;;
22070;SDS011;11200;51.488;6.668;2023-03-01T09:03:51;11.80;;;9.07;;
22070;SDS011;11200;51.488;6.668;2023-03-01T09:06:17;12.93;;;9.05;;
22070;SDS011;11200;51.488;6.668;2023-03-01T09:08:46;12.73;;;8.98;;
22070;SDS011;11200;51.488;6.668;2023-03-01T09:11:15;11.60;;;8.73;;
22070;SDS011;11200;51.488;6.668;2023-03-01T09:13:46;12.18;;;8.98;;
22070;SDS011;11200;51.488;6.668;2023-03-01T09:16:13;10.45;;;8.88;;
22070;SDS011;11200;51.488;6.668;2023-03-01T09:18:40;11.35;;;8.57;;
22070;SDS011;11200;51.488;6.668;2023-03-01T09:21:10;11.02;;;8.45;;
22070;SDS011;11200;51.488;6.668;2023-03-01T09:23:39;10.88;;;9.07;;
22070;SDS011;11200;51.488;6.668;2023-03-01T09:26:07;10.18;;;8.68;;
22070;SDS011;11200;51.488;6.668;2023-03-01T09:28:34;9.85;;;8.75;;
22070;SDS011;11200;51.488;6.668;2023-03-01T09:31:01;10.98;;;8.80;;
22070;SDS011;11200;51.488;6.668;2023-03-01T09:33:28;11.52;;;8.70;;
22070;SDS011;11200;51.488;6.668;2023-03-01T09:35:58;11.73;;;8.88;;
22070;SDS011;11200;51.488;6.668;2023-03-01T09:38:24;9.75;;;8.25;;
22070;SDS011;11200;51.488;6.668;2023-03-01T09:40:50;11.73;;;8.98;;
22070;SDS011;11200;51.488;6.668;2023-03-01T09:43:30;10.88;;;8.90;;
22070;SDS011;11200;51.488;6.668;2023-03-01T09:46:08;11.02;;;8.98;;
22070;SDS011;11200;51.488;6.668;2023-03-01T09:48:43;9.35;;;8.15;;
22070;SDS011;11200;51.488;6.668;2023-03-01T09:51:15;10.50;;;8.45;;
22070;SDS011;11200;51.488;6.668;2023-03-01T09:53:50;10.15;;;8.40;;
22070;SDS011;11200;51.488;6.668;2023-03-01T09:56:24;10.05;;;8.30;;
22070;SDS011;11200;51.488;6.668;2023-03-01T09:59:32;8.93;;;7.95;;
22070;SDS011;11200;51.488;6.668;2023-03-01T10:02:13;9.10;;;8.18;;
22070;SDS011;11200;51.488;6.668;2023-03-01T10:07:38;11.18;;;8.52;;
22070;SDS011;11200;51.488;6.668;2023-03-01T10:10:07;10.45;;;8.35;;
22070;SDS011;11200;51.488;6.668;2023-03-01T10:12:48;9.63;;;7.85;;
22070;SDS011;11200;51.488;6.668;2023-03-01T10:15:19;9.02;;;7.82;;
22070;SDS011;11200;51.488;6.668;2023-03-01T10:17:58;9.50;;;8.07;;
22070;SDS011;11200;51.488;6.668;2023-03-01T10:23:23;12.05;;;7.95;;
22070;SDS011;11200;51.488;6.668;2023-03-01T10:31:26;9.07;;;7.38;;
22070;SDS011;11200;51.488;6.668;2023-03-01T10:34:02;10.02;;;7.25;;
22070;SDS011;11200;51.488;6.668;2023-03-01T10:36:33;8.85;;;7.68;;
22070;SDS011;11200;51.488;6.668;2023-03-01T10:38:59;7.60;;;6.80;;
22070;SDS011;11200;51.488;6.668;2023-03-01T10:41:35;9.73;;;7.30;;
22070;SDS011;11200;51.488;6.668;2023-03-01T10:44:42;9.93;;;7.40;;
22070;SDS011;11200;51.488;6.668;2023-03-01T10:47:17;8.48;;;6.88;;
22070;SDS011;11200;51.488;6.668;2023-03-01T10:52:22;9.45;;;6.85;;
22070;SDS011;11200;51.488;6.668;2023-03-01T10:54:55;8.60;;;7.20;;
22070;SDS011;11200;51.488;6.668;2023-03-01T10:57:41;9.10;;;7.00;;
22070;SDS011;11200;51.488;6.668;2023-03-01T11:00:15;9.35;;;7.22;;
22070;SDS011;11200;51.488;6.668;2023-03-01T11:02:49;9.80;;;7.32;;
22070;SDS011;11200;51.488;6.668;2023-03-01T11:05:36;7.93;;;6.60;;
22070;SDS011;11200;51.488;6.668;2023-03-01T11:08:02;7.47;;;6.60;;
22070;SDS011;11200;51.488;6.668;2023-03-01T11:10:32;8.38;;;6.63;;
22070;SDS011;11200;51.488;6.668;2023-03-01T11:13:06;9.40;;;7.13;;
22070;SDS011;11200;51.488;6.668;2023-03-01T11:15:43;7.30;;;6.20;;
22070;SDS011;11200;51.488;6.668;2023-03-01T11:18:23;6.60;;;5.80;;
22070;SDS011;11200;51.488;6.668;2023-03-01T11:20:51;7.68;;;6.55;;
22070;SDS011;11200;51.488;6.668;2023-03-01T11:23:19;8.40;;;6.18;;
22070;SDS011;11200;51.488;6.668;2023-03-01T11:26:05;8.25;;;6.47;;
22070;SDS011;11200;51.488;6.668;2023-03-01T11:28:33;7.55;;;6.00;;
22070;SDS011;11200;51.488;6.668;2023-03-01T11:31:05;7.65;;;6.32;;
22070;SDS011;11200;51.488;6.668;2023-03-01T11:33:44;8.93;;;6.07;;
22070;SDS011;11200;51.488;6.668;2023-03-01T11:42:20;7.10;;;5.60;;
22070;SDS011;11200;51.488;6.668;2023-03-01T11:44:54;6.20;;;5.57;;
22070;SDS011;11200;51.488;6.668;2023-03-01T11:50:26;6.20;;;5.43;;
22070;SDS011;11200;51.488;6.668;2023-03-01T11:53:50;6.68;;;5.00;;
22070;SDS011;11200;51.488;6.668;2023-03-01T12:08:09;7.78;;;5.20;;
22070;SDS011;11200;51.488;6.668;2023-03-01T12:16:19;6.50;;;4.80;;
22070;SDS011;11200;51.488;6.668;2023-03-01T12:22:04;5.55;;;4.32;;
22070;SDS011;11200;51.488;6.668;2023-03-01T12:38:54;6.15;;;4.70;;
22070;SDS011;11200;51.488;6.668;2023-03-01T12:41:36;6.50;;;4.25;;
22070;SDS011;11200;51.488;6.668;2023-03-01T12:47:20;5.00;;;4.25;;
22070;SDS011;11200;51.488;6.668;2023-03-01T12:49:50;6.43;;;4.43;;
22070;SDS011;11200;51.488;6.668;2023-03-01T12:52:43;5.72;;;4.35;;
22070;SDS011;11200;51.488;6.668;2023-03-01T12:55:33;4.22;;;3.80;;
22070;SDS011;11200;51.488;6.668;2023-03-01T13:31:57;5.85;;;4.38;;
22070;SDS011;11200;51.488;6.668;2023-03-01T13:33:57;6.47;;;4.07;;
22070;SDS011;11200;51.488;6.668;2023-03-01T13:44:13;4.88;;;4.38;;
22070;SDS011;11200;51.488;6.668;2023-03-01T13:49:49;4.95;;;4.38;;
22070;SDS011;11200;51.488;6.668;2023-03-01T13:57:43;5.05;;;4.50;;
22070;SDS011;11200;51.488;6.668;2023-03-01T14:03:02;7.03;;;5.40;;
22070;SDS011;11200;51.488;6.668;2023-03-01T14:06:02;7.93;;;5.07;;
22070;SDS011;11200;51.488;6.668;2023-03-01T14:08:34;7.25;;;5.07;;
22070;SDS011;11200;51.488;6.668;2023-03-01T14:11:24;7.00;;;4.88;;
22070;SDS011;11200;51.488;6.668;2023-03-01T14:14:24;5.80;;;4.85;;
22070;SDS011;11200;51.488;6.668;2023-03-01T14:17:25;5.05;;;4.55;;
22070;SDS011;11200;51.488;6.668;2023-03-01T14:20:00;5.95;;;5.35;;
22070;SDS011;11200;51.488;6.668;2023-03-01T14:22:34;5.97;;;4.88;;
22070;SDS011;11200;51.488;6.668;2023-03-01T14:25:23;6.88;;;5.07;;
22070;SDS011;11200;51.488;6.668;2023-03-01T14:27:54;6.35;;;5.25;;
22070;SDS011;11200;51.488;6.668;2023-03-01T14:30:25;7.10;;;5.20;;
22070;SDS011;11200;51.488;6.668;2023-03-01T14:33:04;6.45;;;5.10;;
22070;SDS011;11200;51.488;6.668;2023-03-01T14:35:35;6.90;;;5.40;;
22070;SDS011;11200;51.488;6.668;2023-03-01T14:38:02;6.93;;;5.45;;
22070;SDS011;11200;51.488;6.668;2023-03-01T14:40:35;6.68;;;4.65;;
22070;SDS011;11200;51.488;6.668;2023-03-01T14:43:08;7.13;;;5.38;;
22070;SDS011;11200;51.488;6.668;2023-03-01T14:45:35;8.45;;;5.80;;
22070;SDS011;11200;51.488;6.668;2023-03-01T14:48:02;7.72;;;5.80;;
22070;SDS011;11200;51.488;6.668;2023-03-01T14:50:32;7.38;;;5.82;;
22070;SDS011;11200;51.488;6.668;2023-03-01T14:53:05;7.45;;;5.55;;
22070;SDS011;11200;51.488;6.668;2023-03-01T14:55:40;6.25;;;5.28;;
22070;SDS011;11200;51.488;6.668;2023-03-01T14:58:12;6.20;;;5.32;;
22070;SDS011;11200;51.488;6.668;2023-03-01T15:00:39;6.47;;;5.20;;
22070;SDS011;11200;51.488;6.668;2023-03-01T15:03:17;6.35;;;5.03;;
22070;SDS011;11200;51.488;6.668;2023-03-01T15:06:06;9.88;;;6.22;;
22070;SDS011;11200;51.488;6.668;2023-03-01T15:08:33;6.40;;;5.57;;
22070;SDS011;11200;51.488;6.668;2023-03-01T15:11:20;5.68;;;5.15;;
22070;SDS011;11200;51.488;6.668;2023-03-01T15:13:49;6.57;;;5.25;;
22070;SDS011;11200;51.488;6.668;2023-03-01T15:16:17;6.78;;;5.70;;
22070;SDS011;11200;51.488;6.668;2023-03-01T15:18:51;7.32;;;5.65;;
22070;SDS011;11200;51.488;6.668;2023-03-01T15:21:22;5.90;;;5.22;;
22070;SDS011;11200;51.488;6.668;2023-03-01T15:23:50;8.18;;;5.70;;
22070;SDS011;11200;51.488;6.668;2023-03-01T15:26:23;7.85;;;5.68;;
22070;SDS011;11200;51.488;6.668;2023-03-01T15:28:52;6.55;;;5.45;;
22070;SDS011;11200;51.488;6.668;2023-03-01T15:31:27;7.45;;;6.10;;
22070;SDS011;11200;51.488;6.668;2023-03-01T15:36:50;7.88;;;6.03;;
22070;SDS011;11200;51.488;6.668;2023-03-01T15:42:02;6.97;;;5.70;;
22070;SDS011;11200;51.488;6.668;2023-03-01T15:44:39;8.25;;;5.88;;
22070;SDS011;11200;51.488;6.668;2023-03-01T15:47:23;7.07;;;5.68;;
22070;SDS011;11200;51.488;6.668;2023-03-01T15:49:54;6.75;;;5.88;;
22070;SDS011;11200;51.488;6.668;2023-03-01T15:55:03;6.88;;;5.65;;
22070;SDS011;11200;51.488;6.668;2023-03-01T15:57:30;6.80;;;5.80;;
22070;SDS011;11200;51.488;6.668;2023-03-01T15:59:56;7.43;;;6.07;;
22070;SDS011;11200;51.488;6.668;2023-03-01T16:02:22;6.93;;;5.47;;
22070;SDS011;11200;51.488;6.668;2023-03-01T16:04:49;7.10;;;5.50;;
22070;SDS011;11200;51.488;6.668;2023-03-01T16:07:15;6.93;;;5.50;;
22070;SDS011;11200;51.488;6.668;2023-03-01T16:09:41;6.43;;;5.22;;
22070;SDS011;11200;51.488;6.668;2023-03-01T16:12:11;6.88;;;5.30;;
22070;SDS011;11200;51.488;6.668;2023-03-01T16:14:40;7.45;;;5.50;;
22070;SDS011;11200;51.488;6.668;2023-03-01T16:17:05;6.70;;;4.88;;
22070;SDS011;11200;51.488;6.668;2023-03-01T16:19:34;7.97;;;5.13;;
22070;SDS011;11200;51.488;6.668;2023-03-01T16:22:00;8.23;;;5.50;;
22070;SDS011;11200;51.488;6.668;2023-03-01T16:24:26;6.63;;;5.15;;
22070;SDS011;11200;51.488;6.668;2023-03-01T16:26:51;7.82;;;5.75;;
22070;SDS011;11200;51.488;6.668;2023-03-01T16:29:17;8.02;;;6.50;;
22070;SDS011;11200;51.488;6.668;2023-03-01T16:31:43;6.68;;;5.47;;
22070;SDS011;11200;51.488;6.668;2023-03-01T16:34:08;8.25;;;6.45;;
22070;SDS011;11200;51.488;6.668;2023-03-01T16:36:34;7.80;;;5.88;;
22070;SDS011;11200;51.488;6.668;2023-03-01T16:39:01;7.25;;;5.53;;
22070;SDS011;11200;51.488;6.668;2023-03-01T16:41:28;7.57;;;6.22;;
22070;SDS011;11200;51.488;6.668;2023-03-01T16:43:54;7.53;;;6.18;;
22070;SDS011;11200;51.488;6.668;2023-03-01T16:46:21;8.65;;;6.22;;
22070;SDS011;11200;51.488;6.668;2023-03-01T16:48:48;7.57;;;5.65;;
22070;SDS011;11200;51.488;6.668;2023-03-01T16:51:15;8.45;;;6.13;;
22070;SDS011;11200;51.488;6.668;2023-03-01T16:53:40;8.07;;;6.32;;
22070;SDS011;11200;51.488;6.668;2023-03-01T16:56:07;8.38;;;5.95;;
22070;SDS011;11200;51.488;6.668;2023-03-01T16:58:35;7.70;;;5.90;;
22070;SDS011;11200;51.488;6.668;2023-03-01T17:01:06;8.93;;;6.65;;
22070;SDS011;11200;51.488;6.668;2023-03-01T17:03:36;10.40;;;6.63;;
22070;SDS011;11200;51.488;6.668;2023-03-01T17:06:04;9.25;;;6.80;;
22070;SDS011;11200;51.488;6.668;2023-03-01T17:08:32;10.15;;;6.72;;
22070;SDS011;11200;51.488;6.668;2023-03-01T17:11:01;8.30;;;6.45;;
22070;SDS011;11200;51.488;6.668;2023-03-01T17:13:28;7.97;;;6.35;;
22070;SDS011;11200;51.488;6.668;2023-03-01T17:15:54;9.77;;;7.00;;
22070;SDS011;11200;51.488;6.668;2023-03-01T17:18:19;8.43;;;6.68;;
22070;SDS011;11200;51.488;6.668;2023-03-01T17:20:45;9.07;;;6.47;;
22070;SDS011;11200;51.488;6.668;2023-03-01T17:23:11;7.82;;;6.18;;
22070;SDS011;11200;51.488;6.668;2023-03-01T17:25:40;8.05;;;6.53;;
22070;SDS011;11200;51.488;6.668;2023-03-01T17:28:10;7.95;;;6.28;;
22070;SDS011;11200;51.488;6.668;2023-03-01T17:30:36;10.07;;;6.82;;
22070;SDS011;11200;51.488;6.668;2023-03-01T17:33:02;7.70;;;6.30;;
22070;SDS011;11200;51.488;6.668;2023-03-01T17:35:27;8.00;;;6.57;;
22070;SDS011;11200;51.488;6.668;2023-03-01T17:37:53;8.90;;;6.68;;
22070;SDS011;11200;51.488;6.668;2023-03-01T17:40:19;8.10;;;6.05;;
22070;SDS011;11200;51.488;6.668;2023-03-01T17:42:44;8.43;;;6.15;;
22070;SDS011;11200;51.488;6.668;2023-03-01T17:45:11;8.75;;;6.47;;
22070;SDS011;11200;51.488;6.668;2023-03-01T17:47:36;11.52;;;6.13;;
22070;SDS011;11200;51.488;6.668;2023-03-01T17:50:02;8.77;;;6.18;;
22070;SDS011;11200;51.488;6.668;2023-03-01T17:52:29;7.65;;;6.05;;
22070;SDS011;11200;51.488;6.668;2023-03-01T17:54:55;7.60;;;5.90;;
22070;SDS011;11200;51.488;6.668;2023-03-01T17:57:21;8.13;;;6.28;;
22070;SDS011;11200;51.488;6.668;2023-03-01T17:59:46;9.15;;;5.90;;
22070;SDS011;11200;51.488;6.668;2023-03-01T18:02:12;8.85;;;6.25;;
22070;SDS011;11200;51.488;6.668;2023-03-01T18:04:37;8.90;;;6.15;;
22070;SDS011;11200;51.488;6.668;2023-03-01T18:07:03;8.27;;;5.88;;
22070;SDS011;11200;51.488;6.668;2023-03-01T18:09:28;8.65;;;5.97;;
22070;SDS011;11200;51.488;6.668;2023-03-01T18:11:55;8.20;;;5.80;;
22070;SDS011;11200;51.488;6.668;2023-03-01T18:14:21;7.28;;;5.63;;
22070;SDS011;11200;51.488;6.668;2023-03-01T18:16:47;7.93;;;5.63;;
22070;SDS011;11200;51.488;6.668;2023-03-01T18:19:12;8.93;;;5.75;;
22070;SDS011;11200;51.488;6.668;2023-03-01T18:21:38;6.57;;;5.45;;
22070;SDS011;11200;51.488;6.668;2023-03-01T18:24:03;7.72;;;5.80;;
22070;SDS011;11200;51.488;6.668;2023-03-01T18:26:29;7.35;;;6.10;;
22070;SDS011;11200;51.488;6.668;2023-03-01T18:28:58;8.35;;;5.97;;
22070;SDS011;11200;51.488;6.668;2023-03-01T18:31:34;8.85;;;6.10;;
22070;SDS011;11200;51.488;6.668;2023-03-01T18:34:01;8.93;;;6.20;;
22070;SDS011;11200;51.488;6.668;2023-03-01T18:36:28;8.00;;;6.20;;
22070;SDS011;11200;51.488;6.668;2023-03-01T18:38:55;8.00;;;5.97;;
22070;SDS011;11200;51.488;6.668;2023-03-01T18:41:22;7.22;;;5.75;;
22070;SDS011;11200;51.488;6.668;2023-03-01T18:43:49;8.07;;;5.53;;
22070;SDS011;11200;51.488;6.668;2023-03-01T18:46:14;9.45;;;6.30;;
22070;SDS011;11200;51.488;6.668;2023-03-01T18:48:41;8.13;;;5.57;;
22070;SDS011;11200;51.488;6.668;2023-03-01T18:51:17;8.65;;;6.13;;
22070;SDS011;11200;51.488;6.668;2023-03-01T18:53:45;8.63;;;6.20;;
22070;SDS011;11200;51.488;6.668;2023-03-01T18:56:11;7.97;;;6.10;;
22070;SDS011;11200;51.488;6.668;2023-03-01T18:58:37;7.95;;;5.75;;
22070;SDS011;11200;51.488;6.668;2023-03-01T19:01:03;8.73;;;6.13;;
22070;SDS011;11200;51.488;6.668;2023-03-01T19:03:32;8.55;;;6.07;;
22070;SDS011;11200;51.488;6.668;2023-03-01T19:05:59;7.78;;;5.93;;
22070;SDS011;11200;51.488;6.668;2023-03-01T19:08:26;8.07;;;5.70;;
22070;SDS011;11200;51.488;6.668;2023-03-01T19:10:57;8.40;;;6.03;;
22070;SDS011;11200;51.488;6.668;2023-03-01T19:13:25;8.55;;;6.22;;
22070;SDS011;11200;51.488;6.668;2023-03-01T19:15:51;8.48;;;6.13;;
22070;SDS011;11200;51.488;6.668;2023-03-01T19:18:25;8.93;;;6.10;;
22070;SDS011;11200;51.488;6.668;2023-03-01T19:20:55;8.15;;;5.90;;
22070;SDS011;11200;51.488;6.668;2023-03-01T19:23:25;7.70;;;6.35;;
22070;SDS011;11200;51.488;6.668;2023-03-01T19:25:56;7.68;;;5.80;;
22070;SDS011;11200;51.488;6.668;2023-03-01T19:28:23;8.75;;;6.45;;
22070;SDS011;11200;51.488;6.668;2023-03-01T19:30:49;10.63;;;6.25;;
22070;SDS011;11200;51.488;6.668;2023-03-01T19:33:14;8.45;;;5.88;;
22070;SDS011;11200;51.488;6.668;2023-03-01T19:35:40;8.48;;;5.88;;
22070;SDS011;11200;51.488;6.668;2023-03-01T19:38:06;9.15;;;6.13;;
22070;SDS011;11200;51.488;6.668;2023-03-01T19:40:31;7.25;;;5.50;;
22070;SDS011;11200;51.488;6.668;2023-03-01T19:42:57;8.73;;;6.63;;
22070;SDS011;11200;51.488;6.668;2023-03-01T19:45:23;8.88;;;6.28;;
22070;SDS011;11200;51.488;6.668;2023-03-01T19:47:49;8.02;;;5.90;;
22070;SDS011;11200;51.488;6.668;2023-03-01T19:50:16;8.93;;;6.55;;
22070;SDS011;11200;51.488;6.668;2023-03-01T19:52:42;8.13;;;5.93;;
22070;SDS011;11200;51.488;6.668;2023-03-01T19:55:08;10.60;;;6.07;;
22070;SDS011;11200;51.488;6.668;2023-03-01T19:57:34;8.45;;;5.68;;
22070;SDS011;11200;51.488;6.668;2023-03-01T19:59:59;8.25;;;6.13;;
22070;SDS011;11200;51.488;6.668;2023-03-01T20:02:26;7.90;;;6.10;;
22070;SDS011;11200;51.488;6.668;2023-03-01T20:04:51;8.35;;;5.95;;
22070;SDS011;11200;51.488;6.668;2023-03-01T20:07:17;8.93;;;6.30;;
22070;SDS011;11200;51.488;6.668;2023-03-01T20:09:43;8.75;;;6.28;;
22070;SDS011;11200;51.488;6.668;2023-03-01T20:12:09;8.43;;;6.35;;
22070;SDS011;11200;51.488;6.668;2023-03-01T20:14:35;9.13;;;6.13;;
22070;SDS011;11200;51.488;6.668;2023-03-01T20:17:01;8.13;;;5.88;;
22070;SDS011;11200;51.488;6.668;2023-03-01T20:19:27;9.27;;;6.05;;
22070;SDS011;11200;51.488;6.668;2023-03-01T20:21:52;8.25;;;5.93;;
22070;SDS011;11200;51.488;6.668;2023-03-01T20:24:18;8.90;;;6.13;;
22070;SDS011;11200;51.488;6.668;2023-03-01T20:26:43;8.20;;;5.93;;
22070;SDS011;11200;51.488;6.668;2023-03-01T20:29:09;8.60;;;6.22;;
22070;SDS011;11200;51.488;6.668;2023-03-01T20:31:35;8.57;;;6.38;;
22070;SDS011;11200;51.488;6.668;2023-03-01T20:34:03;7.93;;;6.07;;
22070;SDS011;11200;51.488;6.668;2023-03-01T20:36:29;8.05;;;5.97;;
22070;SDS011;11200;51.488;6.668;2023-03-01T20:38:55;8.43;;;5.82;;
22070;SDS011;11200;51.488;6.668;2023-03-01T20:41:20;8.27;;;6.30;;
22070;SDS011;11200;51.488;6.668;2023-03-01T20:43:49;8.50;;;6.15;;
22070;SDS011;11200;51.488;6.668;2023-03-01T20:46:20;7.63;;;5.95;;
22070;SDS011;11200;51.488;6.668;2023-03-01T20:48:47;8.15;;;5.63;;
22070;SDS011;11200;51.488;6.668;2023-03-01T20:51:17;7.90;;;6.07;;
22070;SDS011;11200;51.488;6.668;2023-03-01T20:53:43;8.43;;;6.00;;
22070;SDS011;11200;51.488;6.668;2023-03-01T20:56:10;7.68;;;5.82;;
22070;SDS011;11200;51.488;6.668;2023-03-01T20:58:37;9.00;;;6.03;;
22070;SDS011;11200;51.488;6.668;2023-03-01T21:01:03;7.32;;;5.35;;
22070;SDS011;11200;51.488;6.668;2023-03-01T21:03:30;8.18;;;5.65;;
22070;SDS011;11200;51.488;6.668;2023-03-01T21:05:57;8.85;;;5.38;;
22070;SDS011;11200;51.488;6.668;2023-03-01T21:08:23;9.63;;;5.53;;
22070;SDS011;11200;51.488;6.668;2023-03-01T21:10:50;8.23;;;6.00;;
22070;SDS011;11200;51.488;6.668;2023-03-01T21:13:17;7.63;;;5.38;;
22070;SDS011;11200;51.488;6.668;2023-03-01T21:15:50;7.68;;;5.43;;
22070;SDS011;11200;51.488;6.668;2023-03-01T21:18:20;8.88;;;6.28;;
22070;SDS011;11200;51.488;6.668;2023-03-01T21:20:46;8.00;;;5.47;;
22070;SDS011;11200;51.488;6.668;2023-03-01T21:23:12;7.25;;;4.88;;
22070;SDS011;11200;51.488;6.668;2023-03-01T21:25:38;7.25;;;5.10;;
22070;SDS011;11200;51.488;6.668;2023-03-01T21:28:04;7.10;;;5.05;;
22070;SDS011;11200;51.488;6.668;2023-03-01T21:30:29;7.57;;;5.43;;
22070;SDS011;11200;51.488;6.668;2023-03-01T21:32:55;7.72;;;5.25;;
22070;SDS011;11200;51.488;6.668;2023-03-01T21:35:21;8.50;;;5.95;;
22070;SDS011;11200;51.488;6.668;2023-03-01T21:37:47;7.10;;;5.07;;
22070;SDS011;11200;51.488;6.668;2023-03-01T21:40:12;7.93;;;5.22;;
22070;SDS011;11200;51.488;6.668;2023-03-01T21:42:38;7.68;;;5.10;;
22070;SDS011;11200;51.488;6.668;2023-03-01T21:45:04;7.63;;;5.22;;
22070;SDS011;11200;51.488;6.668;2023-03-01T21:47:30;8.10;;;5.68;;